createdAt,value
2022-12-13T00:08:24.494Z,20.33
2022-12-13T00:18:27.883Z,19.07
2022-12-13T00:28:30.497Z,18.93
2022-12-13T00:38:33.221Z,18.67
2022-12-13T00:48:35.772Z,16.80
2022-12-13T00:58:38.454Z,17.23
2022-12-13T01:08:41.784Z,16.43
2022-12-13T01:18:44.806Z,16.07
2022-12-13T01:28:47.649Z,15.97
2022-12-13T01:38:50.016Z,17.13
2022-12-13T01:49:19.569Z,17.10
2022-12-13T01:59:23.586Z,18.13
2022-12-13T02:09:27.035Z,15.60
2022-12-13T02:19:47.958Z,16.43
2022-12-13T02:30:14.444Z,15.73
2022-12-13T02:40:47.135Z,15.27
2022-12-13T02:50:52.402Z,14.93
2022-12-13T03:01:28.044Z,14.13
2022-12-13T03:12:05.570Z,13.33
2022-12-13T03:22:08.054Z,14.63
2022-12-13T03:32:10.502Z,15.27
2022-12-13T03:42:12.894Z,15.50
2022-12-13T03:52:15.256Z,14.37
2022-12-13T04:02:31.357Z,15.50
2022-12-13T04:12:53.170Z,16.37
2022-12-13T04:22:55.425Z,20.73
2022-12-13T04:32:57.515Z,19.97
2022-12-13T04:42:59.970Z,17.23
2022-12-13T04:53:02.472Z,18.83
2022-12-13T05:03:04.759Z,18.77
2022-12-13T05:13:07.972Z,18.57
2022-12-13T05:23:10.534Z,17.97
2022-12-13T05:33:13.109Z,18.70
2022-12-13T05:43:22.251Z,19.93
2022-12-13T05:53:37.280Z,20.67
2022-12-13T06:03:41.047Z,19.95
2022-12-13T06:13:44.509Z,20.77
2022-12-13T06:23:47.413Z,20.87
2022-12-13T06:33:50.745Z,22.60
2022-12-13T06:43:53.410Z,23.40
2022-12-13T06:53:56.825Z,20.93
2022-12-13T07:04:03.601Z,22.97
2022-12-13T07:14:06.735Z,22.07
2022-12-13T07:24:10.994Z,23.53
2022-12-13T07:34:15.693Z,22.50
2022-12-13T07:44:18.666Z,23.17
2022-12-13T07:54:21.404Z,21.23
2022-12-13T08:04:24.315Z,23.03
2022-12-13T08:14:27.155Z,21.93
2022-12-13T08:24:31.538Z,24.20
2022-12-13T08:34:34.794Z,22.17
2022-12-13T08:44:37.934Z,22.67
2022-12-13T08:54:44.846Z,20.77
2022-12-13T09:04:47.441Z,17.48
2022-12-13T09:14:50.156Z,14.57
2022-12-13T09:24:53.065Z,15.40
2022-12-13T09:34:56.131Z,14.83
2022-12-13T09:45:03.774Z,14.33
2022-12-13T09:55:53.062Z,13.77
2022-12-13T10:06:00.772Z,14.63
2022-12-13T10:16:27.446Z,13.60
2022-12-13T10:36:44.067Z,11.47
2022-12-13T10:46:51.565Z,12.90
2022-12-13T10:57:00.331Z,10.87
2022-12-13T11:07:29.063Z,10.83
2022-12-13T11:17:35.421Z,12.93
2022-12-13T11:27:44.566Z,11.67
2022-12-13T11:38:03.754Z,11.47
2022-12-13T11:48:26.445Z,10.97
2022-12-13T11:59:07.978Z,11.73
2022-12-13T12:09:19.160Z,9.60
2022-12-13T12:19:38.185Z,9.17
2022-12-13T12:30:02.418Z,6.73
2022-12-13T12:41:14.188Z,4.67
2022-12-13T12:51:15.671Z,3.90
2022-12-13T13:01:52.276Z,4.43
2022-12-13T13:11:57.223Z,4.97
2022-12-13T13:22:02.588Z,3.77
2022-12-13T13:32:11.709Z,3.87
2022-12-13T13:42:18.349Z,4.00
2022-12-13T13:52:25.421Z,4.57
2022-12-13T14:03:12.669Z,4.67
2022-12-13T14:13:45.218Z,4.60
2022-12-13T14:24:01.639Z,3.63
2022-12-13T14:34:08.144Z,4.60
2022-12-13T14:44:26.509Z,4.00
2022-12-13T14:55:07.718Z,4.50
2022-12-13T15:05:28.785Z,5.03
2022-12-13T15:15:35.925Z,4.60
2022-12-13T15:25:40.173Z,4.83
2022-12-13T15:36:26.051Z,5.70
2022-12-13T15:46:32.711Z,5.00
2022-12-13T15:57:18.333Z,5.33
2022-12-13T16:07:29.420Z,5.70
2022-12-13T16:17:33.838Z,5.23
2022-12-13T16:27:38.259Z,6.13
2022-12-13T16:37:41.732Z,7.37
2022-12-13T16:47:51.612Z,6.50
2022-12-13T16:58:01.346Z,7.07
2022-12-13T17:08:04.632Z,7.10
2022-12-13T17:18:07.460Z,6.70
2022-12-13T17:28:10.235Z,6.97
2022-12-13T17:38:13.013Z,8.47
2022-12-13T17:48:15.507Z,9.80
2022-12-13T17:58:20.360Z,9.37
2022-12-13T18:08:24.414Z,9.18
2022-12-13T18:18:27.318Z,9.67
2022-12-13T18:28:30.921Z,9.20
2022-12-13T18:38:37.034Z,10.43
2022-12-13T18:48:41.875Z,11.07
2022-12-13T18:58:44.879Z,10.80
2022-12-13T19:08:49.711Z,12.63
2022-12-13T19:18:53.016Z,12.98
2022-12-13T19:28:58.101Z,13.13
2022-12-13T19:39:01.652Z,15.67
2022-12-13T19:49:05.308Z,13.10
2022-12-13T19:59:09.038Z,12.77
2022-12-13T20:09:12.284Z,13.33
2022-12-13T20:19:15.308Z,11.83
2022-12-13T20:29:18.954Z,12.97
2022-12-13T20:39:22.583Z,13.47
2022-12-13T20:49:25.510Z,12.73
2022-12-13T20:59:28.787Z,13.53
2022-12-13T21:09:31.743Z,12.80
2022-12-13T21:19:39.331Z,13.17
2022-12-13T21:29:42.990Z,13.23
2022-12-13T21:39:46.489Z,12.33
2022-12-13T21:49:49.715Z,13.80
2022-12-13T21:59:53.238Z,16.37
2022-12-13T22:09:57.037Z,13.00
2022-12-13T22:20:00.724Z,13.17
2022-12-13T22:30:04.566Z,13.57
2022-12-13T22:40:07.751Z,13.30
2022-12-13T22:50:10.268Z,12.77
2022-12-13T23:00:13.460Z,14.70
2022-12-13T23:10:34.486Z,13.17
2022-12-13T23:20:37.049Z,13.80
2022-12-13T23:30:39.781Z,13.30
2022-12-13T23:40:42.342Z,12.90
2022-12-13T23:50:44.899Z,12.93
